Time;durP1;ratioP1;P1;durP2;ratioP2;P2;SDS_P1;SDS_P2;PMS_P1;PMS_P2;Temp;Humidity;BMP_temperature;BMP_pressure;BME280_temperature;BME280_humidity;BME280_pressure;Samples;Min_cycle;Max_cycle;Signal;HPM_P1;HPM_P2
2023/01/17 01:35:40;;;;;;;50.40;30.50;;;;;;;9.65;85.60;100757.48;104624;1299;22556;-57
2023/01/17 01:38:08;;;;;;;44.90;29.50;;;;;;;9.73;85.00;100749.89;106101;1280;22537;-57
2023/01/17 01:40:43;;;;;;;50.80;29.50;;;;;;;9.82;84.35;100750.40;106059;1281;25371;-57
2023/01/17 01:43:16;;;;;;;41.40;28.40;;;;;;;9.94;83.79;100746.55;105953;1279;377735;-57
2023/01/17 01:45:53;;;;;;;44.20;28.70;;;;;;;10.05;83.17;100746.34;106133;1279;26528;-58
2023/01/17 01:48:45;;;;;;;40.20;26.20;;;;;;;10.12;82.65;100745.36;106207;1280;25386;-59
2023/01/17 01:51:16;;;;;;;41.20;25.40;;;;;;;10.21;82.14;100740.50;105720;1284;22568;-57
2023/01/17 01:53:44;;;;;;;37.20;25.70;;;;;;;10.29;81.57;100737.39;105631;1284;22546;-58
2023/01/17 01:56:12;;;;;;;38.20;25.20;;;;;;;10.35;81.30;100730.33;105659;1284;25484;-57
2023/01/17 01:58:40;;;;;;;41.10;25.20;;;;;;;10.41;80.85;100728.46;105737;1286;23029;-58
2023/01/17 02:01:08;;;;;;;41.90;25.90;;;;;;;10.44;80.61;100733.09;105668;1292;25419;-57
2023/01/17 02:03:35;;;;;;;39.40;24.90;;;;;;;10.48;80.31;100729.67;105813;1286;25416;-57
2023/01/17 02:06:26;;;;;;;45.20;24.60;;;;;;;10.53;79.87;100728.55;105593;1286;25503;-57
2023/01/17 02:08:56;;;;;;;42.90;24.90;;;;;;;10.57;79.59;100730.35;105496;1285;24520;-57
2023/01/17 02:11:23;;;;;;;43.90;24.60;;;;;;;10.60;79.17;100725.77;105463;1277;22561;-57
2023/01/17 02:13:50;;;;;;;38.50;23.70;;;;;;;10.65;78.98;100723.08;106135;1275;25473;-56
2023/01/17 02:16:42;;;;;;;40.10;24.20;;;;;;;10.68;78.55;100721.61;106329;1273;25468;-57
2023/01/17 02:19:44;;;;;;;38.80;23.70;;;;;;;10.72;78.24;100719.09;106464;1276;25315;-56
2023/01/17 02:22:38;;;;;;;38.50;24.40;;;;;;;10.76;77.98;100717.10;106562;1274;25421;-57
2023/01/17 02:25:27;;;;;;;41.20;25.10;;;;;;;10.80;77.61;100711.95;106521;1275;25342;-57
2023/01/17 02:28:21;;;;;;;35.70;24.40;;;;;;;10.82;77.40;100714.17;106552;1267;25595;-57
2023/01/17 02:30:50;;;;;;;33.80;23.90;;;;;;;10.85;77.22;100715.66;107169;1267;26624;-57
2023/01/17 02:33:31;;;;;;;38.60;23.90;;;;;;;10.87;76.94;100719.07;106920;1273;24548;-57
2023/01/17 02:36:14;;;;;;;36.20;23.00;;;;;;;10.89;76.82;100715.04;106595;1272;23212;-57
2023/01/17 02:38:51;;;;;;;42.80;24.10;;;;;;;10.92;76.61;100714.27;107158;1271;25403;-57
2023/01/17 02:41:26;;;;;;;36.90;23.70;;;;;;;10.93;76.49;100704.02;107099;1266;22643;-57
2023/01/17 02:43:54;;;;;;;39.90;24.40;;;;;;;10.94;76.35;100702.07;107143;1266;25383;-56
2023/01/17 02:46:21;;;;;;;32.90;23.20;;;;;;;10.96;76.24;100703.25;106691;1272;26620;-57
2023/01/17 02:48:48;;;;;;;43.30;23.20;;;;;;;10.98;76.09;100703.89;106858;1271;25442;-57
2023/01/17 02:51:21;;;;;;;35.90;24.00;;;;;;;10.99;75.85;100698.67;107105;1266;25303;-57
2023/01/17 02:54:27;;;;;;;34.70;23.90;;;;;;;11.00;75.76;100710.45;107120;1266;23864;-57
2023/01/17 02:57:09;;;;;;;37.90;22.60;;;;;;;11.03;75.50;100712.29;107073;1266;25389;-57
2023/01/17 02:59:39;;;;;;;38.50;23.40;;;;;;;11.03;75.35;100713.83;107067;1270;24236;-58
2023/01/17 03:02:16;;;;;;;43.80;24.00;;;;;;;11.03;75.31;100708.11;106700;1272;26541;-57
2023/01/17 03:04:48;;;;;;;41.90;24.10;;;;;;;11.03;75.23;100705.67;107112;1266;23001;-57
2023/01/17 03:07:18;;;;;;;40.50;22.40;;;;;;;11.04;75.08;100708.62;107085;1267;25430;-57
2023/01/17 03:09:46;;;;;;;41.70;22.30;;;;;;;11.04;74.95;100707.73;106818;1267;22535;-57
2023/01/17 03:12:14;;;;;;;35.40;23.00;;;;;;;11.04;74.92;100706.36;106884;1268;22521;-56
2023/01/17 03:14:41;;;;;;;31.50;22.20;;;;;;;11.02;74.70;100705.18;107091;1268;24256;-57
2023/01/17 03:17:08;;;;;;;32.70;21.20;;;;;;;11.00;74.81;100706.46;107006;1267;25373;-57
2023/01/17 03:19:36;;;;;;;40.70;22.90;;;;;;;10.94;74.98;100700.18;106359;1269;25367;-57
2023/01/17 03:22:03;;;;;;;38.90;21.50;;;;;;;10.92;74.95;100697.27;106301;1268;25349;-57
2023/01/17 03:24:30;;;;;;;38.30;21.40;;;;;;;11.00;74.63;100700.02;106965;1267;25344;-57
2023/01/17 03:26:57;;;;;;;36.40;21.10;;;;;;;11.00;74.51;100693.42;107154;1268;24346;-57
2023/01/17 03:29:25;;;;;;;28.50;21.60;;;;;;;11.03;74.43;100685.37;106835;1271;25352;-57
2023/01/17 03:31:52;;;;;;;35.90;21.00;;;;;;;11.05;74.31;100683.23;107051;1267;25419;-57
2023/01/17 03:34:19;;;;;;;39.00;20.90;;;;;;;11.07;74.02;100679.20;107065;1267;25352;-57
2023/01/17 03:36:46;;;;;;;34.70;21.10;;;;;;;11.07;74.00;100676.77;107072;1267;25421;-57
2023/01/17 03:39:13;;;;;;;37.10;20.70;;;;;;;11.08;73.88;100673.27;107070;1266;25418;-57
2023/01/17 03:41:40;;;;;;;33.20;20.40;;;;;;;11.10;73.66;100673.03;107006;1271;25424;-57
2023/01/17 03:44:08;;;;;;;37.30;21.20;;;;;;;11.11;73.55;100671.27;106669;1274;25348;-57
2023/01/17 03:46:35;;;;;;;36.30;20.50;;;;;;;11.11;73.48;100673.36;107076;1267;25336;-57
2023/01/17 03:49:02;;;;;;;38.30;21.50;;;;;;;11.10;73.37;100668.88;107080;1267;25414;-58
2023/01/17 03:51:30;;;;;;;36.50;20.30;;;;;;;11.10;73.30;100675.29;107112;1271;25470;-57
2023/01/17 03:53:57;;;;;;;37.00;21.10;;;;;;;11.10;73.34;100671.64;106708;1275;25410;-57
2023/01/17 03:56:25;;;;;;;33.00;19.10;;;;;;;11.10;73.22;100673.21;106911;1268;25496;-58
2023/01/17 10:28:35;;;;;;;61.00;22.90;;;;;;;11.00;79.58;100536.02;104982;1285;22709;-60
2023/01/17 10:31:09;;;;;;;41.90;20.30;;;;;;;11.11;78.96;100527.19;105908;1285;25922;-57
2023/01/17 10:33:43;;;;;;;38.90;18.60;;;;;;;11.21;78.30;100528.81;106508;1273;25491;-57
2023/01/17 10:36:19;;;;;;;37.60;18.70;;;;;;;11.31;77.66;100527.84;106343;1272;223008;-60
2023/01/17 10:39:08;;;;;;;40.80;19.40;;;;;;;11.40;77.05;100520.82;106674;1277;25360;-57
2023/01/17 10:41:37;;;;;;;41.90;19.00;;;;;;;11.48;76.53;100508.95;106244;1278;25414;-57
2023/01/17 10:44:26;;;;;;;37.30;17.60;;;;;;;11.55;76.02;100501.09;106248;1278;23138;-57
2023/01/17 10:47:11;;;;;;;47.10;18.30;;;;;;;11.63;75.53;100496.52;106313;1278;25417;-56
2023/01/17 10:49:44;;;;;;;43.50;18.70;;;;;;;11.69;75.05;100496.69;106191;1286;25392;-57
2023/01/17 10:52:27;;;;;;;35.80;17.20;;;;;;;11.78;74.60;100497.13;106322;1278;24227;-57
2023/01/17 10:55:18;;;;;;;37.80;18.40;;;;;;;11.85;74.31;100496.05;106266;1278;25358;-57
2023/01/17 10:57:47;;;;;;;37.60;16.90;;;;;;;11.92;73.92;100501.02;105907;1279;25407;-57
2023/01/17 11:00:52;;;;;;;41.90;18.70;;;;;;;11.99;73.54;100497.51;105862;1279;22749;-58
2023/01/17 11:03:20;;;;;;;42.80;18.50;;;;;;;12.06;73.13;100506.66;105761;1285;25460;-57
2023/01/17 11:06:23;;;;;;;41.90;17.70;;;;;;;12.10;72.69;100505.64;105797;1285;25414;-57
2023/01/17 11:09:00;;;;;;;41.10;17.50;;;;;;;12.15;72.37;100512.46;105272;1296;25365;-58
2023/01/17 11:11:30;;;;;;;42.30;18.90;;;;;;;12.20;72.27;100514.21;105461;1293;25439;-57
2023/01/17 11:13:59;;;;;;;36.90;18.80;;;;;;;12.27;72.11;100511.71;105391;1277;22561;-57
2023/01/17 11:16:28;;;;;;;35.70;17.30;;;;;;;12.35;71.88;100509.91;105430;1290;22683;-57
2023/01/17 11:19:25;;;;;;;43.10;18.10;;;;;;;12.43;71.39;100515.70;105310;1286;25476;-57
2023/01/17 11:21:56;;;;;;;35.10;18.10;;;;;;;12.52;70.85;100520.30;105664;1292;25413;-57
2023/01/17 11:24:27;;;;;;;36.90;17.20;;;;;;;12.57;70.48;100519.08;105720;1286;22616;-57
2023/01/17 11:26:54;;;;;;;42.70;19.30;;;;;;;12.61;70.03;100513.69;105822;1286;25695;-57
2023/01/17 11:29:26;;;;;;;46.00;18.80;;;;;;;12.64;69.59;100510.27;105708;1289;25354;-57
2023/01/17 11:31:55;;;;;;;36.50;17.10;;;;;;;12.66;69.25;100508.66;105974;1286;25547;-57
2023/01/17 11:34:23;;;;;;;42.00;18.20;;;;;;;12.66;68.96;100505.35;105655;1286;22661;-57
2023/01/17 11:37:28;;;;;;;37.40;16.50;;;;;;;12.65;68.80;100501.38;105622;1286;24347;-57
2023/01/17 11:40:08;;;;;;;38.20;18.30;;;;;;;12.65;68.53;100494.77;105530;1291;24461;-57
2023/01/17 11:42:36;;;;;;;39.10;18.10;;;;;;;12.64;68.37;100488.02;105552;1290;22552;-57
2023/01/17 11:45:36;;;;;;;48.70;20.60;;;;;;;12.61;68.22;100490.37;106006;1284;25411;-57
2023/01/17 11:48:12;;;;;;;38.40;17.30;;;;;;;12.60;68.10;100490.79;105872;1284;24301;-57
2023/01/17 11:50:43;;;;;;;42.10;17.90;;;;;;;12.58;68.11;100490.16;105957;1285;25378;-58
2023/01/17 11:53:13;;;;;;;40.30;18.60;;;;;;;12.55;68.11;100480.86;105796;1287;25420;-57
2023/01/17 11:55:52;;;;;;;35.70;18.00;;;;;;;12.53;67.96;100475.17;105696;1289;24204;-57
2023/01/17 11:58:19;;;;;;;37.30;17.20;;;;;;;12.50;67.88;100474.24;105708;1285;22556;-57
2023/01/17 12:00:49;;;;;;;30.40;15.50;;;;;;;12.46;67.88;100467.94;105991;1285;26558;-57
2023/01/17 12:03:38;;;;;;;36.00;17.80;;;;;;;12.41;67.85;100473.51;105666;1269;22780;-57
2023/01/17 12:06:11;;;;;;;32.50;16.30;;;;;;;12.35;67.99;100467.44;105430;1287;25344;-57
2023/01/17 12:08:41;;;;;;;39.20;17.00;;;;;;;12.31;68.12;100467.76;105651;1284;25493;-57
2023/01/17 12:11:32;;;;;;;39.50;18.00;;;;;;;12.27;68.18;100474.14;105732;1285;22797;-57
2023/01/17 12:14:05;;;;;;;40.10;18.80;;;;;;;12.23;68.33;100474.45;105956;1284;25419;-57
2023/01/17 12:17:10;;;;;;;35.60;17.10;;;;;;;12.20;68.51;100471.24;106284;1280;25343;-56
2023/01/17 12:19:59;;;;;;;57.50;18.30;;;;;;;12.16;68.69;100471.55;105950;1280;24227;-59
2023/01/17 12:22:33;;;;;;;32.90;16.10;;;;;;;12.13;68.81;100471.48;105808;1283;25503;-57
2023/01/17 12:25:18;;;;;;;31.80;16.20;;;;;;;12.12;68.93;100477.44;106782;1272;25344;-59
2023/01/17 12:28:08;;;;;;;33.20;16.70;;;;;;;12.11;69.08;100475.38;106776;1272;25366;-57
2023/01/17 12:31:07;;;;;;;42.10;16.50;;;;;;;12.11;69.27;100474.15;106786;1272;25476;-57
2023/01/17 12:34:23;;;;;;;36.40;16.00;;;;;;;12.13;69.33;100483.31;106554;1272;25655;-56
2023/01/17 12:37:00;;;;;;;31.90;15.80;;;;;;;12.15;69.34;100475.40;105887;1280;25364;-56
2023/01/17 12:39:40;;;;;;;29.60;16.10;;;;;;;12.18;69.43;100476.71;105963;1279;25362;-56
2023/01/17 12:42:27;;;;;;;29.40;14.80;;;;;;;12.21;69.34;100477.48;105945;1279;22554;-56
2023/01/17 12:45:01;;;;;;;44.30;17.30;;;;;;;12.24;69.19;100478.43;105783;1283;25617;-58
2023/01/17 12:47:29;;;;;;;47.70;16.00;;;;;;;12.26;69.04;100480.80;105900;1280;22535;-58
2023/01/17 12:50:33;;;;;;;41.50;16.10;;;;;;;12.08;69.65;100486.25;105728;1283;25358;-57
2023/01/17 12:53:18;;;;;;;44.10;14.80;;;;;;;12.14;69.42;100487.77;105584;1289;25661;-58
2023/01/17 12:55:54;;;;;;;42.60;15.80;;;;;;;12.25;68.85;100486.73;105301;1288;25814;-58
2023/01/17 13:01:56;;;;;;;48.10;17.70;;;;;;;12.26;68.65;100493.48;103782;1305;545442;-56
2023/01/17 13:04:28;;;;;;;36.10;15.30;;;;;;;12.22;68.81;100493.45;106207;1280;22634;-57
2023/01/17 13:06:59;;;;;;;43.40;16.50;;;;;;;12.19;68.94;100493.70;105855;1273;25493;-58
2023/01/17 13:09:38;;;;;;;42.80;15.90;;;;;;;12.19;68.98;100494.94;105904;1288;22547;-57
2023/01/17 13:12:09;;;;;;;37.50;15.30;;;;;;;12.15;69.09;100495.08;105857;1288;24272;-57
2023/01/17 13:14:36;;;;;;;41.70;15.60;;;;;;;12.13;69.15;100507.83;105932;1282;232500;-56
2023/01/17 13:17:05;;;;;;;40.70;14.50;;;;;;;12.10;69.17;100513.48;104683;1279;1003776;-57
2023/01/17 13:19:35;;;;;;;34.00;15.20;;;;;;;12.08;69.26;100508.67;106014;1279;22628;-57
2023/01/17 13:22:04;;;;;;;44.00;16.10;;;;;;;12.06;69.40;100503.70;106084;1279;25430;-56
2023/01/17 13:24:34;;;;;;;31.90;14.40;;;;;;;12.04;69.52;100504.45;106049;1280;22661;-57
2023/01/17 13:27:34;;;;;;;43.20;15.00;;;;;;;12.02;69.54;100509.40;106209;1279;22599;-58
2023/01/17 19:41:28;;;;;;;53.10;19.50;;;;;;;9.11;89.20;100644.73;104251;1298;1003814;-59
2023/01/17 19:43:56;;;;;;;51.80;19.30;;;;;;;9.21;88.39;100645.90;106239;1287;24399;-57
2023/01/17 19:46:26;;;;;;;53.60;19.30;;;;;;;9.30;88.02;100645.58;106146;1281;25330;-57
2023/01/17 19:48:54;;;;;;;64.10;18.40;;;;;;;9.38;87.65;100647.51;106002;1278;406033;-57
2023/01/17 19:51:21;;;;;;;61.10;19.40;;;;;;;9.47;87.47;100654.78;106407;1278;25344;-57
2023/01/17 19:53:49;;;;;;;38.20;15.70;;;;;;;9.55;87.15;100652.21;106263;1278;25455;-60
2023/01/17 19:56:22;;;;;;;47.30;16.10;;;;;;;9.62;86.85;100649.82;105949;1279;24272;-58
2023/01/17 19:58:51;;;;;;;43.40;14.60;;;;;;;9.70;86.48;100649.67;106298;1282;25350;-57
2023/01/17 20:01:23;;;;;;;38.40;14.40;;;;;;;9.77;86.09;100650.40;105910;1284;25434;-59
2023/01/17 20:03:51;;;;;;;46.70;14.90;;;;;;;9.81;85.85;100654.10;106046;1278;24517;-57
2023/01/17 20:06:23;;;;;;;39.30;13.50;;;;;;;9.86;85.61;100651.23;105976;1285;25407;-58
2023/01/17 20:08:50;;;;;;;38.50;13.50;;;;;;;9.91;85.15;100657.73;105944;1280;25504;-60
2023/01/17 20:11:19;;;;;;;44.40;13.30;;;;;;;9.95;84.80;100662.84;106303;1281;25410;-58
2023/01/17 20:13:48;;;;;;;26.70;11.20;;;;;;;9.98;84.66;100663.64;106410;1278;25553;-58
2023/01/17 20:16:15;;;;;;;39.40;12.60;;;;;;;10.03;84.32;100661.30;106153;1281;22540;-58
2023/01/17 20:18:43;;;;;;;46.10;12.40;;;;;;;10.07;84.01;100661.90;106221;1280;22557;-58
2023/01/17 20:21:26;;;;;;;50.40;13.00;;;;;;;10.10;83.63;100659.95;106236;1279;25414;-58
2023/01/17 20:23:54;;;;;;;35.60;12.20;;;;;;;10.15;83.45;100662.27;105855;1284;25441;-58
2023/01/17 20:26:23;;;;;;;36.10;11.80;;;;;;;10.19;83.13;100664.78;106100;1279;25361;-59
2023/01/17 20:28:50;;;;;;;38.40;13.40;;;;;;;10.23;82.68;100661.41;106081;1281;25414;-58
2023/01/17 20:31:20;;;;;;;35.80;12.60;;;;;;;10.26;82.37;100668.27;105574;1285;22690;-58
2023/01/17 20:33:49;;;;;;;;;;;;;;;10.30;82.11;100668.36;106028;1277;25328;-58
2023/01/17 20:36:17;;;;;;;36.50;12.60;;;;;;;10.54;81.03;100666.07;105669;1278;25372;-59
2023/01/17 20:38:44;;;;;;;45.70;12.60;;;;;;;10.65;80.17;100661.83;106004;1281;25377;-58
2023/01/17 20:41:23;;;;;;;32.20;11.50;;;;;;;10.57;80.22;100663.75;106338;1278;24821;-58
2023/01/17 20:43:52;;;;;;;44.30;13.30;;;;;;;10.43;80.88;100664.44;105910;1285;25405;-58
2023/01/17 20:46:20;;;;;;;44.40;11.50;;;;;;;10.45;80.89;100664.02;106375;1278;24686;-58
2023/01/17 20:48:55;;;;;;;33.80;9.60;;;;;;;10.49;80.75;100666.52;106151;1281;24196;-58
2023/01/17 20:51:24;;;;;;;31.20;10.80;;;;;;;10.54;80.66;100664.34;106419;1277;22530;-58
2023/01/17 20:53:53;;;;;;;34.00;10.70;;;;;;;10.62;80.60;100659.82;106325;1278;22540;-58
2023/01/17 20:56:20;;;;;;;30.20;10.50;;;;;;;10.71;80.39;100660.81;105894;1284;24420;-58
2023/01/17 20:58:47;;;;;;;33.80;10.20;;;;;;;10.81;80.14;100660.57;106419;1278;25358;-58
2023/01/17 21:01:19;;;;;;;30.80;10.40;;;;;;;10.89;79.46;100666.79;106004;1276;25304;-59
2023/01/17 21:03:50;;;;;;;33.30;10.40;;;;;;;10.96;79.09;100662.47;105563;1278;1003730;-59
2023/01/17 21:06:18;;;;;;;32.50;12.30;;;;;;;11.01;78.68;100661.30;106315;1279;25354;-59
2023/01/17 21:08:46;;;;;;;30.60;10.50;;;;;;;11.07;78.41;100657.83;105913;1282;24417;-58
2023/01/17 21:11:17;;;;;;;30.80;10.20;;;;;;;11.13;78.12;100662.70;105546;1279;24421;-59
2023/01/17 21:13:44;;;;;;;39.20;12.90;;;;;;;11.18;77.82;100658.96;106089;1279;23151;-58
2023/01/17 21:16:12;;;;;;;39.50;12.80;;;;;;;11.21;77.54;100657.31;106009;1282;25525;-59
2023/01/17 21:18:41;;;;;;;38.30;12.40;;;;;;;11.23;77.30;100657.25;106112;1278;25527;-59
2023/01/17 21:21:13;;;;;;;31.80;11.40;;;;;;;11.24;76.97;100654.98;106011;1266;22532;-59
2023/01/17 21:23:41;;;;;;;36.30;12.00;;;;;;;11.23;76.75;100656.55;105590;1282;25354;-59
2023/01/17 21:26:11;;;;;;;34.80;11.20;;;;;;;11.22;76.52;100658.85;106127;1279;25504;-59
2023/01/17 21:28:39;;;;;;;32.30;10.90;;;;;;;11.19;76.33;100660.32;106351;1278;25408;-59
2023/01/17 21:31:25;;;;;;;38.70;10.90;;;;;;;11.17;76.23;100660.69;106436;1278;25601;-59
2023/01/17 21:33:57;;;;;;;41.90;11.50;;;;;;;11.14;76.07;100657.13;106149;1278;25373;-59
2023/01/17 21:36:32;;;;;;;37.50;12.00;;;;;;;11.12;75.86;100656.15;106032;1278;24242;-60
2023/01/17 21:39:03;;;;;;;33.10;11.20;;;;;;;11.10;75.78;100649.42;105612;1281;1002585;-59
2023/01/17 21:41:32;;;;;;;28.00;10.40;;;;;;;11.08;75.78;100644.29;106325;1278;22553;-59
2023/01/17 21:44:09;;;;;;;30.80;11.30;;;;;;;11.05;75.78;100640.52;106362;1269;22921;-59
2023/01/17 21:46:37;;;;;;;28.60;10.10;;;;;;;11.04;75.67;100638.81;106112;1279;22655;-59
2023/01/17 21:49:05;;;;;;;30.60;10.70;;;;;;;11.02;75.65;100637.32;106339;1279;25504;-59
2023/01/17 21:59:57;;;;;;;29.40;11.30;;;;;;;10.95;75.72;100624.80;106112;1279;25357;-59
2023/01/17 22:02:24;;;;;;;29.30;11.20;;;;;;;10.94;75.81;100628.48;106020;1279;22554;-58
2023/01/17 22:04:53;;;;;;;22.70;9.20;;;;;;;10.93;75.84;100627.28;106020;1279;22558;-59
2023/01/17 22:07:21;;;;;;;30.90;11.10;;;;;;;10.92;75.93;100635.29;106323;1278;22768;-59
2023/01/17 22:13:11;;;;;;;29.80;10.10;;;;;;;10.92;75.89;100640.86;103781;1306;545590;-60
2023/01/17 22:15:39;;;;;;;30.70;10.20;;;;;;;10.89;75.91;100640.94;105978;1282;22550;-60
2023/01/17 22:18:06;;;;;;;38.10;12.60;;;;;;;10.88;75.77;100644.61;106065;1282;22543;-60
2023/01/17 22:20:33;;;;;;;30.10;10.60;;;;;;;10.89;75.65;100642.51;105954;1283;25364;-60
2023/01/17 22:23:00;;;;;;;37.70;10.50;;;;;;;10.88;75.56;100643.21;105810;1281;23931;-61
2023/01/17 22:25:27;;;;;;;25.40;9.90;;;;;;;10.86;75.65;100640.48;105732;1281;24288;-61
2023/01/17 22:27:55;;;;;;;30.90;9.80;;;;;;;10.86;75.68;100627.81;105763;1286;213793;-61
2023/01/17 22:30:22;;;;;;;27.10;9.30;;;;;;;10.86;75.81;100622.45;106275;1279;22548;-61
2023/01/17 22:32:49;;;;;;;31.20;11.80;;;;;;;10.87;75.94;100615.48;106270;1280;24253;-60
2023/01/17 22:35:17;;;;;;;43.30;12.60;;;;;;;10.88;75.92;100616.83;106170;1280;22788;-61
2023/01/17 22:37:44;;;;;;;46.00;13.60;;;;;;;10.88;75.86;100617.52;106281;1279;22536;-60
2023/01/17 22:40:11;;;;;;;34.00;11.30;;;;;;;10.88;75.69;100615.09;106192;1279;22543;-61
2023/01/17 22:42:39;;;;;;;32.70;10.20;;;;;;;10.89;75.49;100613.02;106157;1282;24284;-60
2023/01/17 22:45:06;;;;;;;42.90;12.40;;;;;;;10.87;75.45;100608.21;106297;1279;24234;-60
2023/01/17 22:47:33;;;;;;;31.70;10.30;;;;;;;10.86;75.45;100605.96;106083;1280;24383;-60
2023/01/17 22:50:03;;;;;;;28.00;10.50;;;;;;;10.86;75.37;100601.64;105897;1282;22972;-61
2023/01/17 22:52:30;;;;;;;26.20;8.90;;;;;;;10.85;75.50;100597.31;106047;1282;22537;-60
2023/01/17 22:54:57;;;;;;;31.40;10.80;;;;;;;10.85;75.47;100599.05;106294;1279;24391;-61
2023/01/17 22:57:24;;;;;;;46.90;13.00;;;;;;;10.85;75.55;100595.75;106220;1279;22943;-61
2023/01/17 22:59:51;;;;;;;31.70;10.40;;;;;;;10.84;75.62;100586.39;106827;1269;24406;-60
2023/01/17 23:02:19;;;;;;;30.40;10.60;;;;;;;10.85;75.52;100582.23;106835;1269;24339;-60
2023/01/17 23:04:47;;;;;;;31.70;9.80;;;;;;;10.85;75.60;100576.32;106784;1269;22647;-61
2023/01/17 23:07:15;;;;;;;27.90;9.60;;;;;;;10.85;75.67;100571.98;106657;1269;24254;-60
2023/01/17 23:09:42;;;;;;;28.30;9.80;;;;;;;10.87;75.64;100568.80;106583;1269;22525;-61
2023/01/17 23:12:09;;;;;;;27.20;9.30;;;;;;;10.88;75.64;100556.98;106520;1267;24407;-61
2023/01/17 23:20:09;;;;;;;26.50;9.30;;;;;;;10.91;75.82;100557.04;106608;1270;24391;-61
